Time;durP1;ratioP1;P1;durP2;ratioP2;P2;SDS_P1;SDS_P2;PMS_P1;PMS_P2;Temp;Humidity;BMP_temperature;BMP_pressure;BME280_temperature;BME280_humidity;BME280_pressure;Samples;Min_cycle;Max_cycle;Signal;HPM_P1;HPM_P2
2021/06/12 00:00:18;;;;;;;6.33;5.83;;;17.10;99.90;;;;;;468542;250;29908;-68
2021/06/12 00:02:19;;;;;;;6.20;5.70;;;17.00;99.90;;;;;;468580;254;29395;-65
2021/06/12 00:04:23;;;;;;;5.77;5.30;;;17.00;99.90;;;;;;468548;254;29444;-66
2021/06/12 00:06:22;;;;;;;6.13;5.53;;;17.00;99.90;;;;;;468421;254;29094;-66
2021/06/12 00:08:23;;;;;;;5.30;4.90;;;16.90;99.90;;;;;;468522;254;29068;-67
2021/06/12 00:10:24;;;;;;;6.50;6.00;;;16.90;99.90;;;;;;468574;254;29000;-67
2021/06/12 00:12:26;;;;;;;6.20;5.70;;;16.90;99.90;;;;;;468554;254;28923;-66
2021/06/12 00:14:27;;;;;;;5.70;5.20;;;16.80;99.90;;;;;;468528;254;28954;-66
2021/06/12 00:16:28;;;;;;;6.07;5.57;;;16.80;99.90;;;;;;468531;254;28949;-65
2021/06/12 00:18:29;;;;;;;5.90;5.40;;;16.80;99.90;;;;;;468522;254;29000;-66
2021/06/12 00:20:31;;;;;;;5.80;5.40;;;16.80;99.90;;;;;;468543;254;29899;-66
2021/06/12 00:22:32;;;;;;;5.53;5.10;;;16.80;99.90;;;;;;468529;254;29435;-66
2021/06/12 00:24:33;;;;;;;6.20;5.70;;;16.70;99.90;;;;;;468569;254;29427;-67
2021/06/12 00:26:34;;;;;;;5.73;5.23;;;16.50;99.90;;;;;;468542;254;29452;-67
2021/06/12 00:28:37;;;;;;;6.07;5.57;;;16.50;99.90;;;;;;468531;254;28963;-66
2021/06/12 00:30:37;;;;;;;5.70;5.30;;;16.50;99.90;;;;;;468319;254;28985;-65
2021/06/12 00:32:38;;;;;;;6.37;5.87;;;16.60;99.90;;;;;;468549;250;28850;-66
2021/06/12 00:34:39;;;;;;;7.33;6.73;;;16.60;99.90;;;;;;468539;254;29068;-66
2021/06/12 00:36:41;;;;;;;7.10;6.40;;;16.70;99.90;;;;;;468523;254;28935;-66
2021/06/12 00:38:42;;;;;;;6.37;5.70;;;16.60;99.90;;;;;;468529;254;29026;-66
2021/06/12 00:40:43;;;;;;;7.23;6.53;;;16.60;99.90;;;;;;468554;254;29245;-67
2021/06/12 00:42:45;;;;;;;6.13;5.40;;;16.60;99.90;;;;;;468533;254;29030;-66
2021/06/12 00:44:46;;;;;;;6.47;5.87;;;16.60;99.90;;;;;;468531;254;29425;-64
2021/06/12 00:46:47;;;;;;;6.73;6.13;;;16.60;99.90;;;;;;468524;254;29482;-66
2021/06/12 00:48:48;;;;;;;6.90;6.30;;;16.60;99.90;;;;;;468542;254;29436;-65
2021/06/12 00:50:49;;;;;;;6.60;6.00;;;16.50;99.90;;;;;;468551;254;29528;-67
2021/06/12 00:52:51;;;;;;;6.37;5.87;;;16.50;99.90;;;;;;468573;254;29037;-65
2021/06/12 00:54:52;;;;;;;7.13;6.43;;;16.40;99.90;;;;;;468533;254;28988;-66
2021/06/12 00:56:53;;;;;;;6.00;5.50;;;16.30;99.90;;;;;;468523;254;29023;-65
2021/06/12 00:58:54;;;;;;;7.27;6.33;;;16.30;99.90;;;;;;468516;254;28953;-65
2021/06/12 01:00:56;;;;;;;6.60;6.10;;;16.20;99.90;;;;;;468566;254;28882;-68
2021/06/12 01:02:57;;;;;;;7.03;6.03;;;16.20;99.90;;;;;;468535;251;29064;-66
2021/06/12 01:04:58;;;;;;;7.07;6.47;;;16.20;99.90;;;;;;468542;254;29054;-65
2021/06/12 01:06:59;;;;;;;6.60;6.10;;;16.20;99.90;;;;;;468515;254;29378;-66
2021/06/12 01:09:01;;;;;;;9.93;5.80;;;16.10;99.90;;;;;;468554;254;29394;-63
2021/06/12 01:11:02;;;;;;;6.67;6.07;;;16.00;99.90;;;;;;468556;254;29489;-68
2021/06/12 01:13:03;;;;;;;6.63;6.00;;;16.00;99.90;;;;;;468567;254;28943;-65
2021/06/12 01:15:05;;;;;;;6.20;5.70;;;16.10;99.90;;;;;;468459;254;28962;-67
2021/06/12 01:17:06;;;;;;;6.10;5.60;;;16.20;99.90;;;;;;468539;254;28927;-66
2021/06/12 01:19:07;;;;;;;6.80;6.20;;;16.20;99.90;;;;;;468549;254;29044;-66
2021/06/12 01:21:08;;;;;;;6.37;5.87;;;16.20;99.90;;;;;;468560;254;28881;-67
2021/06/12 01:23:10;;;;;;;7.93;6.40;;;16.20;99.90;;;;;;468516;254;29008;-66
2021/06/12 01:25:11;;;;;;;6.97;6.37;;;16.20;99.90;;;;;;468518;254;29061;-67
2021/06/12 01:27:12;;;;;;;6.50;6.00;;;16.10;99.90;;;;;;468543;254;28942;-66
2021/06/12 01:29:13;;;;;;;6.70;6.17;;;16.10;99.90;;;;;;468540;254;28855;-65
2021/06/12 01:31:15;;;;;;;7.57;6.73;;;16.10;99.90;;;;;;468533;254;29345;-67
2021/06/12 01:33:16;;;;;;;7.27;6.27;;;16.10;99.90;;;;;;468515;254;29415;-66
2021/06/12 01:35:17;;;;;;;6.97;6.27;;;16.00;99.90;;;;;;468555;254;29350;-66
2021/06/12 01:37:18;;;;;;;8.07;7.27;;;16.00;99.90;;;;;;468522;254;29030;-65
2021/06/12 01:39:21;;;;;;;7.13;6.50;;;15.90;99.90;;;;;;468551;254;29022;-65
2021/06/12 01:41:21;;;;;;;6.83;6.23;;;15.90;99.90;;;;;;468437;254;28883;-68
2021/06/12 01:43:22;;;;;;;8.00;6.50;;;15.90;99.90;;;;;;468561;254;28983;-66
2021/06/12 01:45:23;;;;;;;8.10;7.30;;;16.00;99.90;;;;;;468546;254;28962;-66
2021/06/12 01:47:25;;;;;;;6.83;6.23;;;16.00;99.90;;;;;;468482;254;28945;-66
2021/06/12 01:49:26;;;;;;;6.20;5.70;;;15.90;99.90;;;;;;468525;254;29087;-66
2021/06/12 01:51:27;;;;;;;7.50;6.80;;;16.00;99.90;;;;;;468563;250;29225;-67
2021/06/12 01:53:31;;;;;;;6.20;5.70;;;16.00;99.90;;;;;;468546;254;28855;-65
2021/06/12 01:55:32;;;;;;;7.10;6.50;;;15.90;99.90;;;;;;468556;254;28978;-66
2021/06/12 01:57:34;;;;;;;7.43;6.37;;;15.90;99.90;;;;;;468512;254;28895;-67
2021/06/12 01:59:35;;;;;;;7.30;6.70;;;15.90;99.90;;;;;;468543;254;28978;-66
2021/06/12 02:01:36;;;;;;;7.63;6.77;;;16.00;99.90;;;;;;468531;254;28875;-66
2021/06/12 02:03:37;;;;;;;9.63;7.30;;;16.00;99.90;;;;;;468583;254;29448;-67
2021/06/12 02:05:39;;;;;;;9.83;7.10;;;15.80;99.90;;;;;;468546;254;29269;-66
2021/06/12 02:07:40;;;;;;;7.60;7.00;;;15.80;99.90;;;;;;468553;254;29582;-66
2021/06/12 02:09:41;;;;;;;6.77;6.17;;;15.80;99.90;;;;;;468543;254;29371;-65
2021/06/12 02:11:42;;;;;;;8.00;7.07;;;15.80;99.90;;;;;;468564;254;28943;-66
2021/06/12 02:13:44;;;;;;;8.10;7.40;;;15.90;99.90;;;;;;468565;254;28871;-65
2021/06/12 02:15:45;;;;;;;6.40;5.80;;;15.90;99.90;;;;;;468555;254;28845;-65
2021/06/12 02:17:46;;;;;;;7.43;6.73;;;15.90;99.90;;;;;;468538;254;29037;-66
2021/06/12 02:19:47;;;;;;;7.70;7.00;;;15.90;99.90;;;;;;468536;254;28827;-65
2021/06/12 02:21:49;;;;;;;6.83;6.33;;;15.90;99.90;;;;;;468536;254;29023;-65
2021/06/12 02:23:50;;;;;;;7.63;6.90;;;15.90;99.90;;;;;;468531;254;29098;-67
2021/06/12 02:25:51;;;;;;;7.00;6.50;;;15.80;99.90;;;;;;468526;254;29055;-65
2021/06/12 02:27:52;;;;;;;6.93;6.43;;;15.80;99.90;;;;;;468505;254;29006;-66
2021/06/12 02:29:54;;;;;;;7.03;6.40;;;15.80;99.90;;;;;;468499;254;29476;-65
2021/06/12 02:31:55;;;;;;;9.40;8.00;;;15.70;99.90;;;;;;468525;254;29417;-65
2021/06/12 02:33:56;;;;;;;8.57;7.80;;;15.60;99.90;;;;;;468583;254;29334;-67
2021/06/12 02:35:58;;;;;;;8.37;7.67;;;15.60;99.90;;;;;;468550;254;29383;-65
2021/06/12 02:37:59;;;;;;;7.60;6.90;;;15.50;99.90;;;;;;468538;254;28944;-65
2021/06/12 02:40:00;;;;;;;7.87;7.17;;;15.50;99.90;;;;;;468516;254;29057;-65
2021/06/12 02:42:01;;;;;;;8.27;7.47;;;15.50;99.90;;;;;;468541;254;28976;-65
2021/06/12 02:44:03;;;;;;;8.00;7.33;;;15.50;99.90;;;;;;468555;254;29052;-67
2021/06/12 02:46:04;;;;;;;7.97;7.17;;;15.50;99.90;;;;;;468546;254;29020;-64
2021/06/12 02:48:05;;;;;;;7.60;7.00;;;15.50;99.90;;;;;;468529;254;29099;-65
2021/06/12 02:50:06;;;;;;;7.77;7.17;;;15.50;99.90;;;;;;468575;254;29015;-65
2021/06/12 02:52:08;;;;;;;8.10;7.40;;;15.50;99.90;;;;;;468573;254;28844;-65
2021/06/12 02:54:09;;;;;;;7.67;6.97;;;15.50;99.90;;;;;;468548;254;29563;-65
2021/06/12 02:56:10;;;;;;;7.97;7.27;;;15.50;99.90;;;;;;468545;254;29493;-65
2021/06/12 02:58:11;;;;;;;10.10;8.30;;;15.50;99.90;;;;;;468560;254;29509;-65
2021/06/12 03:00:13;;;;;;;8.63;7.40;;;15.50;99.90;;;;;;468555;254;29153;-65
2021/06/12 03:02:14;;;;;;;8.27;7.47;;;15.50;99.90;;;;;;468578;254;28841;-66
2021/06/12 03:04:15;;;;;;;7.47;6.87;;;15.50;99.90;;;;;;468515;254;28979;-66
2021/06/12 03:06:16;;;;;;;8.77;8.07;;;15.50;99.90;;;;;;468558;254;28925;-65
2021/06/12 03:08:18;;;;;;;7.87;7.17;;;15.50;99.90;;;;;;468507;254;28959;-65
2021/06/12 03:10:19;;;;;;;8.47;7.77;;;15.40;99.90;;;;;;468565;254;28904;-68
2021/06/12 03:12:20;;;;;;;8.17;7.50;;;15.40;99.90;;;;;;468546;254;28952;-65
2021/06/12 03:14:21;;;;;;;8.43;7.73;;;15.40;99.90;;;;;;468554;254;29068;-66
2021/06/12 03:16:23;;;;;;;8.00;7.20;;;15.30;99.90;;;;;;468512;254;28982;-65
2021/06/12 03:18:24;;;;;;;8.27;7.57;;;15.30;99.90;;;;;;468515;254;29506;-65
2021/06/12 03:20:25;;;;;;;8.13;7.40;;;15.40;99.90;;;;;;468554;254;29458;-67
2021/06/12 03:22:27;;;;;;;9.00;7.60;;;15.40;99.90;;;;;;468561;254;29550;-65
2021/06/12 03:24:28;;;;;;;8.37;7.67;;;15.40;99.90;;;;;;468517;254;29516;-65
2021/06/12 03:26:29;;;;;;;7.70;7.00;;;15.40;99.90;;;;;;468459;254;29037;-65
2021/06/12 03:28:30;;;;;;;10.17;8.53;;;15.40;99.90;;;;;;468572;254;28841;-65
2021/06/12 03:30:31;;;;;;;7.70;7.00;;;15.40;99.90;;;;;;468597;254;28907;-67
2021/06/12 03:32:33;;;;;;;7.47;6.87;;;15.40;99.90;;;;;;468495;254;29064;-65
2021/06/12 03:34:34;;;;;;;7.97;7.07;;;15.40;99.90;;;;;;468511;254;29106;-66
2021/06/12 03:36:35;;;;;;;8.60;7.90;;;15.40;99.90;;;;;;468501;254;29024;-65
2021/06/12 03:38:36;;;;;;;8.77;7.97;;;15.40;99.90;;;;;;468505;254;28920;-65
2021/06/12 03:40:38;;;;;;;7.93;7.20;;;15.40;99.90;;;;;;468583;254;28976;-66
2021/06/12 03:42:39;;;;;;;9.70;8.17;;;15.40;99.90;;;;;;468516;254;29404;-65
2021/06/12 03:44:41;;;;;;;7.47;6.70;;;15.40;99.90;;;;;;468531;254;29488;-66
2021/06/12 03:46:41;;;;;;;8.43;7.73;;;15.40;99.90;;;;;;468548;254;29445;-65
2021/06/12 03:48:43;;;;;;;9.67;8.67;;;15.30;99.90;;;;;;468540;254;29063;-66
2021/06/12 03:50:44;;;;;;;8.37;7.63;;;15.30;99.90;;;;;;468561;254;28875;-67
2021/06/12 03:52:45;;;;;;;8.13;7.43;;;15.30;99.90;;;;;;468556;254;28941;-65
2021/06/12 03:54:46;;;;;;;8.30;7.57;;;15.30;99.90;;;;;;468553;254;29040;-65
2021/06/12 03:56:48;;;;;;;7.97;7.27;;;15.30;99.90;;;;;;468547;254;28946;-65
2021/06/12 03:58:49;;;;;;;9.00;8.30;;;15.40;99.90;;;;;;468439;254;28992;-66
2021/06/12 04:00:50;;;;;;;8.07;7.27;;;15.40;99.90;;;;;;468544;254;28978;-65
2021/06/12 04:02:51;;;;;;;8.73;7.93;;;15.40;99.90;;;;;;468531;254;28945;-65
2021/06/12 04:04:53;;;;;;;9.30;7.77;;;15.40;99.90;;;;;;468524;254;29012;-67
2021/06/12 04:06:54;;;;;;;8.87;7.30;;;15.40;99.90;;;;;;468530;254;29417;-65
2021/06/12 04:08:55;;;;;;;8.10;7.33;;;15.40;99.90;;;;;;468489;250;29504;-65
2021/06/12 04:10:56;;;;;;;7.00;6.40;;;15.50;99.90;;;;;;468496;254;29496;-65
2021/06/12 04:12:58;;;;;;;7.83;7.13;;;15.50;99.90;;;;;;468526;254;29419;-65
2021/06/12 04:14:59;;;;;;;7.17;6.57;;;15.60;99.90;;;;;;468544;254;29039;-66
2021/06/12 04:17:00;;;;;;;7.60;6.90;;;15.70;99.90;;;;;;468529;254;28986;-65
2021/06/12 04:19:01;;;;;;;8.80;7.50;;;15.70;99.90;;;;;;468505;254;29035;-65
2021/06/12 04:21:03;;;;;;;8.10;7.40;;;15.70;99.90;;;;;;468544;254;28992;-65
2021/06/12 04:23:04;;;;;;;8.33;7.53;;;15.70;99.90;;;;;;468535;254;29019;-66
2021/06/12 04:25:05;;;;;;;8.80;7.90;;;15.70;99.90;;;;;;468513;254;29000;-66
2021/06/12 04:27:06;;;;;;;8.20;7.47;;;15.70;99.90;;;;;;468502;254;28958;-65
2021/06/12 04:29:08;;;;;;;7.80;7.10;;;15.80;99.90;;;;;;468515;254;28971;-65
2021/06/12 04:31:09;;;;;;;7.90;7.10;;;15.80;99.90;;;;;;468584;254;29467;-67
2021/06/12 04:33:10;;;;;;;7.80;7.13;;;15.70;99.90;;;;;;468537;254;29653;-65
2021/06/12 04:35:11;;;;;;;8.13;7.33;;;15.80;99.90;;;;;;468548;254;29721;-67
2021/06/12 04:37:13;;;;;;;7.60;6.97;;;15.80;99.90;;;;;;468547;254;29535;-65
2021/06/12 04:39:14;;;;;;;8.47;7.77;;;15.80;99.90;;;;;;468558;254;29036;-66
2021/06/12 04:41:15;;;;;;;8.30;7.50;;;15.80;99.90;;;;;;468583;254;28977;-67
2021/06/12 04:43:16;;;;;;;8.13;7.43;;;15.70;99.90;;;;;;468553;254;28941;-65
2021/06/12 04:45:18;;;;;;;8.37;7.53;;;15.70;99.90;;;;;;468399;254;29058;-66
2021/06/12 04:47:19;;;;;;;9.30;8.50;;;15.80;99.90;;;;;;468542;254;28921;-65
2021/06/12 04:49:20;;;;;;;9.57;8.50;;;15.80;99.90;;;;;;468550;254;28896;-65
2021/06/12 04:51:21;;;;;;;8.77;8.03;;;15.90;99.90;;;;;;468562;254;29440;-67
2021/06/12 04:53:23;;;;;;;8.60;7.53;;;15.90;99.90;;;;;;468534;254;29449;-65
2021/06/12 04:55:24;;;;;;;10.97;6.90;;;16.00;99.90;;;;;;468542;254;29482;-65
2021/06/12 04:57:25;;;;;;;7.70;7.00;;;16.10;99.90;;;;;;468538;254;29049;-65
2021/06/12 04:59:26;;;;;;;8.37;7.60;;;16.20;99.90;;;;;;468537;254;28921;-65
2021/06/12 05:01:28;;;;;;;12.37;6.73;;;16.30;99.90;;;;;;468525;254;28881;-66
2021/06/12 05:03:29;;;;;;;7.90;7.20;;;16.40;99.90;;;;;;468545;254;29125;-66
2021/06/12 05:05:30;;;;;;;7.67;6.93;;;16.40;99.90;;;;;;468534;254;28976;-66
2021/06/12 05:07:31;;;;;;;7.37;6.77;;;16.40;99.90;;;;;;468525;254;28976;-66
2021/06/12 05:09:33;;;;;;;10.17;8.00;;;16.50;99.90;;;;;;468546;254;28967;-65
2021/06/12 05:11:34;;;;;;;8.20;6.90;;;16.60;99.90;;;;;;468546;254;28921;-65
2021/06/12 05:13:35;;;;;;;8.10;7.30;;;16.60;99.90;;;;;;468566;254;29379;-65
2021/06/12 05:15:36;;;;;;;7.83;7.13;;;16.70;99.90;;;;;;468538;254;29452;-65
2021/06/12 05:17:40;;;;;;;7.53;6.80;;;16.80;99.90;;;;;;468578;254;29629;-67
2021/06/12 05:19:39;;;;;;;8.70;7.60;;;16.80;99.90;;;;;;468445;254;29560;-66
2021/06/12 05:21:40;;;;;;;7.23;6.63;;;16.90;99.90;;;;;;468547;254;28987;-66
2021/06/12 05:23:41;;;;;;;7.80;7.10;;;17.00;99.90;;;;;;468542;254;28949;-65
2021/06/12 05:25:43;;;;;;;7.43;6.80;;;17.10;99.90;;;;;;468561;254;29018;-65
2021/06/12 05:27:45;;;;;;;8.90;8.10;;;17.20;99.90;;;;;;468554;254;29093;-67
2021/06/12 05:29:47;;;;;;;6.93;6.33;;;17.30;99.90;;;;;;468572;254;28916;-65
2021/06/12 05:31:48;;;;;;;8.47;7.67;;;17.40;99.90;;;;;;468560;254;29485;-68
2021/06/12 05:33:49;;;;;;;8.33;7.60;;;17.50;99.90;;;;;;468556;254;29395;-65
2021/06/12 05:35:50;;;;;;;7.53;6.77;;;17.60;99.90;;;;;;468533;254;29438;-65
2021/06/12 05:37:52;;;;;;;7.50;6.80;;;17.60;99.90;;;;;;468570;254;29486;-65
2021/06/12 05:39:53;;;;;;;7.20;6.60;;;17.60;99.90;;;;;;468559;254;29102;-65
2021/06/12 05:41:54;;;;;;;9.83;7.30;;;17.70;99.90;;;;;;468595;254;28858;-67
2021/06/12 05:43:55;;;;;;;8.30;7.50;;;17.80;99.90;;;;;;468561;254;29060;-65
2021/06/12 05:45:57;;;;;;;9.40;7.40;;;17.80;99.90;;;;;;468582;254;29000;-66
2021/06/12 05:47:58;;;;;;;7.33;6.63;;;17.90;99.90;;;;;;468475;254;29010;-65
2021/06/12 05:49:59;;;;;;;8.23;7.40;;;18.00;99.90;;;;;;468367;254;28947;-65
2021/06/12 05:52:00;;;;;;;8.20;7.50;;;18.00;99.90;;;;;;468387;254;28930;-66
2021/06/12 05:54:02;;;;;;;6.93;6.20;;;18.10;99.90;;;;;;468368;254;28957;-65
2021/06/12 05:56:03;;;;;;;8.20;6.80;;;18.10;99.90;;;;;;468511;254;28889;-66
2021/06/12 05:58:04;;;;;;;7.37;6.80;;;18.20;99.90;;;;;;468589;254;29781;-65
2021/06/12 06:00:05;;;;;;;7.50;6.90;;;18.20;99.90;;;;;;468516;254;29382;-66
2021/06/12 06:02:07;;;;;;;7.13;6.53;;;18.30;99.90;;;;;;468598;254;29528;-66
2021/06/12 06:04:08;;;;;;;9.30;8.40;;;18.30;99.90;;;;;;468564;254;29520;-65
2021/06/12 06:06:09;;;;;;;7.20;6.50;;;18.30;99.90;;;;;;468544;254;28876;-65
2021/06/12 06:08:10;;;;;;;7.03;6.43;;;18.30;99.90;;;;;;468593;254;28882;-67
2021/06/12 06:10:12;;;;;;;7.37;6.77;;;18.20;99.90;;;;;;468584;254;28839;-66
2021/06/12 06:12:13;;;;;;;7.80;7.03;;;18.20;99.90;;;;;;468607;254;29089;-66
2021/06/12 06:14:15;;;;;;;7.33;6.63;;;18.20;99.90;;;;;;468564;254;29043;-66
2021/06/12 06:16:15;;;;;;;8.00;6.90;;;18.10;99.90;;;;;;468557;254;28867;-65
2021/06/12 06:18:17;;;;;;;7.27;6.57;;;18.20;99.90;;;;;;468592;254;29370;-67
2021/06/12 06:20:18;;;;;;;6.70;6.10;;;18.20;99.90;;;;;;468597;254;29280;-65
2021/06/12 06:22:19;;;;;;;8.57;6.50;;;18.20;99.90;;;;;;468581;254;29442;-66
2021/06/12 06:24:20;;;;;;;6.63;6.03;;;18.30;99.90;;;;;;468571;254;29378;-65
2021/06/12 06:26:23;;;;;;;7.53;6.73;;;18.30;99.90;;;;;;468586;254;28977;-65
2021/06/12 06:28:23;;;;;;;9.57;6.20;;;18.30;99.90;;;;;;468496;254;29055;-66
2021/06/12 06:30:24;;;;;;;7.93;5.90;;;18.40;99.90;;;;;;468582;254;28844;-65
2021/06/12 06:32:25;;;;;;;9.40;6.30;;;18.50;99.90;;;;;;468567;254;28875;-66
2021/06/12 06:34:27;;;;;;;6.83;6.20;;;18.50;99.90;;;;;;468547;254;28843;-66
2021/06/12 06:36:28;;;;;;;7.10;6.37;;;18.60;99.90;;;;;;468587;254;28893;-66
2021/06/12 06:38:29;;;;;;;6.00;5.50;;;18.70;99.90;;;;;;468583;254;29048;-65
2021/06/12 06:40:30;;;;;;;6.07;5.57;;;18.80;99.90;;;;;;468574;254;28913;-65
2021/06/12 06:42:32;;;;;;;7.40;6.00;;;18.80;99.90;;;;;;468566;254;28881;-67
2021/06/12 06:44:36;;;;;;;6.17;5.57;;;18.90;99.90;;;;;;468552;254;29318;-65
2021/06/12 06:46:34;;;;;;;6.33;5.30;;;18.90;99.90;;;;;;468359;254;29445;-65
2021/06/12 06:48:35;;;;;;;6.50;5.90;;;19.00;99.90;;;;;;468508;254;29517;-66
2021/06/12 06:50:37;;;;;;;5.80;5.30;;;19.00;99.90;;;;;;468535;254;29412;-66
2021/06/12 06:52:38;;;;;;;7.10;6.40;;;19.10;99.90;;;;;;468587;254;28961;-67
2021/06/12 06:54:39;;;;;;;6.10;5.53;;;19.10;99.90;;;;;;468562;254;28948;-66
2021/06/12 06:56:40;;;;;;;7.93;5.60;;;19.20;99.90;;;;;;468555;254;28962;-67
2021/06/12 06:58:42;;;;;;;7.10;4.67;;;19.30;99.90;;;;;;468557;254;29014;-65
2021/06/12 07:00:43;;;;;;;5.67;5.07;;;19.40;99.90;;;;;;468550;254;28987;-66
2021/06/12 07:02:44;;;;;;;6.03;5.23;;;19.30;99.90;;;;;;468587;254;29088;-69
2021/06/12 07:04:45;;;;;;;5.70;5.20;;;19.40;99.90;;;;;;468550;254;28948;-65
2021/06/12 07:06:47;;;;;;;5.00;4.60;;;19.50;99.90;;;;;;468587;254;28870;-65
2021/06/12 07:08:48;;;;;;;5.90;5.30;;;19.50;99.90;;;;;;468579;254;29417;-65
2021/06/12 07:10:52;;;;;;;5.93;5.43;;;19.60;99.90;;;;;;468573;254;29458;-66
2021/06/12 07:12:53;;;;;;;6.60;5.83;;;19.70;99.90;;;;;;468577;250;29486;-65
2021/06/12 07:14:54;;;;;;;5.80;5.20;;;19.80;99.90;;;;;;468221;254;28985;-65
2021/06/12 07:16:56;;;;;;;6.50;4.67;;;19.90;99.90;;;;;;468576;254;28929;-66
2021/06/12 07:18:57;;;;;;;5.63;4.57;;;20.00;99.90;;;;;;468561;254;28945;-67
2021/06/12 07:20:58;;;;;;;7.63;4.93;;;20.20;99.90;;;;;;468558;254;28940;-66
2021/06/12 07:22:59;;;;;;;5.20;4.80;;;20.50;99.90;;;;;;468550;250;29104;-66
2021/06/12 07:25:01;;;;;;;5.13;4.63;;;20.60;99.90;;;;;;468537;254;28969;-68
2021/06/12 07:27:02;;;;;;;5.10;4.60;;;20.70;99.90;;;;;;468574;254;29045;-66
2021/06/12 07:29:03;;;;;;;4.70;4.20;;;20.70;99.90;;;;;;468565;254;28977;-66
2021/06/12 07:31:04;;;;;;;4.97;4.47;;;20.70;99.90;;;;;;468553;254;29500;-66
2021/06/12 07:33:06;;;;;;;6.60;4.63;;;20.70;99.90;;;;;;468529;254;29496;-66
2021/06/12 07:35:07;;;;;;;5.10;4.27;;;20.80;99.90;;;;;;468578;254;29442;-68
2021/06/12 07:37:08;;;;;;;4.87;4.40;;;20.80;99.90;;;;;;468580;254;29385;-66
2021/06/12 07:39:09;;;;;;;4.60;4.20;;;20.80;99.90;;;;;;468597;254;28949;-66
2021/06/12 07:41:11;;;;;;;4.77;3.90;;;20.80;99.90;;;;;;468552;254;28951;-66
2021/06/12 07:43:14;;;;;;;4.50;3.33;;;20.80;99.90;;;;;;468574;254;28996;-66
2021/06/12 07:45:13;;;;;;;6.37;3.33;;;20.80;99.90;;;;;;468502;254;29081;-67
2021/06/12 07:47:14;;;;;;;4.00;3.70;;;20.80;99.90;;;;;;468571;254;28985;-66
2021/06/12 07:49:16;;;;;;;4.00;3.60;;;20.80;99.90;;;;;;468557;254;28964;-66
2021/06/12 07:51:17;;;;;;;3.60;3.30;;;20.70;99.90;;;;;;468546;254;29055;-65
2021/06/12 07:53:18;;;;;;;3.37;3.07;;;20.80;99.90;;;;;;468546;254;28957;-66
2021/06/12 07:55:19;;;;;;;4.63;2.90;;;20.80;99.90;;;;;;468572;254;29348;-67
2021/06/12 07:57:21;;;;;;;3.87;3.47;;;20.90;99.90;;;;;;468524;254;29481;-66
2021/06/12 07:59:22;;;;;;;5.00;3.20;;;21.10;99.90;;;;;;468563;254;29428;-67
2021/06/12 08:01:23;;;;;;;3.03;2.83;;;21.10;99.90;;;;;;468565;254;29514;-66
2021/06/12 08:03:24;;;;;;;4.23;2.87;;;21.20;99.90;;;;;;468532;250;28943;-66
2021/06/12 08:05:26;;;;;;;5.10;3.30;;;21.20;99.90;;;;;;468560;250;28962;-67
2021/06/12 08:07:27;;;;;;;3.60;3.30;;;21.30;99.90;;;;;;468554;254;28941;-66
2021/06/12 08:09:28;;;;;;;3.10;2.80;;;21.40;99.90;;;;;;468512;254;28896;-66
2021/06/12 08:11:29;;;;;;;3.80;2.90;;;21.40;99.90;;;;;;468564;254;28905;-66
2021/06/12 08:13:31;;;;;;;5.60;2.97;;;21.40;99.90;;;;;;468532;254;28988;-66
2021/06/12 08:15:32;;;;;;;3.23;2.87;;;21.30;99.90;;;;;;468579;254;28888;-67
2021/06/12 08:17:33;;;;;;;5.60;2.83;;;21.20;99.90;;;;;;468556;254;28882;-66
2021/06/12 08:19:36;;;;;;;5.00;3.27;;;21.10;99.90;;;;;;468576;254;29400;-66
2021/06/12 08:21:36;;;;;;;2.87;2.67;;;21.10;99.90;;;;;;468511;254;29354;-66
2021/06/12 08:23:37;;;;;;;3.50;3.20;;;21.20;99.90;;;;;;468534;254;29404;-66
2021/06/12 08:25:38;;;;;;;2.90;2.70;;;21.30;99.90;;;;;;468551;254;29441;-68
2021/06/12 08:27:40;;;;;;;3.00;2.80;;;21.40;99.90;;;;;;468573;254;28912;-66
2021/06/12 08:29:41;;;;;;;4.80;3.07;;;21.40;99.90;;;;;;468544;254;28943;-67
2021/06/12 08:31:42;;;;;;;6.53;3.57;;;21.70;99.90;;;;;;468530;254;28848;-66
2021/06/12 08:33:43;;;;;;;3.10;2.90;;;21.80;99.90;;;;;;468540;254;28977;-66
2021/06/12 08:35:45;;;;;;;4.30;3.70;;;21.80;99.90;;;;;;468584;254;28908;-68
2021/06/12 08:37:46;;;;;;;4.43;3.63;;;21.90;99.90;;;;;;468564;254;28941;-66
2021/06/12 08:39:47;;;;;;;2.73;2.53;;;21.80;99.90;;;;;;468562;254;29029;-66
2021/06/12 08:41:48;;;;;;;4.30;3.30;;;21.60;99.90;;;;;;468548;254;29056;-66
2021/06/12 08:43:50;;;;;;;3.87;3.37;;;21.60;99.90;;;;;;468554;254;28954;-66
2021/06/12 08:45:51;;;;;;;4.23;3.33;;;21.70;99.90;;;;;;468544;254;29521;-68
2021/06/12 08:47:52;;;;;;;3.73;3.07;;;21.80;99.90;;;;;;468557;254;29361;-65
2021/06/12 08:49:53;;;;;;;6.23;3.10;;;21.90;99.90;;;;;;468559;250;29350;-67
2021/06/12 08:51:55;;;;;;;3.40;3.10;;;22.00;99.90;;;;;;468566;254;29044;-66
2021/06/12 08:53:56;;;;;;;2.73;2.53;;;22.20;99.90;;;;;;468560;254;28971;-66
2021/06/12 08:55:57;;;;;;;4.43;3.20;;;22.40;99.90;;;;;;468584;254;28949;-68
2021/06/12 08:57:58;;;;;;;3.53;3.23;;;22.50;99.90;;;;;;468573;254;28924;-66
2021/06/12 09:00:00;;;;;;;2.67;2.47;;;22.60;99.90;;;;;;468566;254;28965;-66
2021/06/12 09:02:01;;;;;;;3.13;2.83;;;22.60;99.90;;;;;;468537;254;28936;-66
2021/06/12 09:04:02;;;;;;;2.87;2.60;;;22.70;99.90;;;;;;468530;254;28962;-65
2021/06/12 09:06:03;;;;;;;3.20;2.90;;;22.80;99.90;;;;;;468566;254;28884;-68
2021/06/12 09:08:05;;;;;;;2.93;2.60;;;22.70;99.90;;;;;;468575;254;28992;-66
2021/06/12 09:10:06;;;;;;;6.73;2.97;;;22.60;99.90;;;;;;468580;254;29406;-66
2021/06/12 09:12:07;;;;;;;4.63;2.30;;;22.70;99.90;;;;;;468547;254;29360;-66
2021/06/12 09:14:08;;;;;;;5.20;2.20;;;22.70;99.90;;;;;;468535;254;29368;-66
2021/06/12 09:16:10;;;;;;;2.03;1.93;;;22.50;99.90;;;;;;468565;254;28989;-68
2021/06/12 09:18:11;;;;;;;2.57;2.13;;;22.30;99.90;;;;;;468575;254;28835;-66
2021/06/12 09:20:12;;;;;;;2.37;2.10;;;22.10;99.90;;;;;;468562;254;29086;-66
2021/06/12 09:22:13;;;;;;;5.40;2.13;;;22.00;99.90;;;;;;468537;254;29050;-66
2021/06/12 09:24:15;;;;;;;2.40;1.93;;;22.00;99.90;;;;;;468548;254;28840;-66
2021/06/12 09:26:16;;;;;;;2.37;2.17;;;21.90;99.90;;;;;;468607;254;28979;-66
2021/06/12 09:28:17;;;;;;;2.40;2.20;;;21.90;99.90;;;;;;468545;254;28927;-66
2021/06/12 09:30:18;;;;;;;2.47;1.90;;;22.00;99.90;;;;;;468519;254;29061;-66
2021/06/12 09:32:20;;;;;;;2.30;2.10;;;22.20;99.90;;;;;;468510;254;29955;-65
2021/06/12 09:34:21;;;;;;;3.60;1.93;;;22.20;99.90;;;;;;468528;254;29284;-66
2021/06/12 09:36:22;;;;;;;2.10;2.00;;;22.30;99.90;;;;;;468534;254;29476;-66
2021/06/12 09:38:23;;;;;;;2.13;2.03;;;22.30;99.90;;;;;;468542;254;29406;-66
2021/06/12 09:40:25;;;;;;;1.90;1.80;;;22.30;99.90;;;;;;468540;254;28970;-66
2021/06/12 09:42:26;;;;;;;1.67;1.57;;;22.30;99.90;;;;;;468582;254;28898;-68
2021/06/12 09:44:27;;;;;;;3.53;1.77;;;22.40;99.90;;;;;;468525;254;29018;-66
2021/06/12 09:46:28;;;;;;;1.90;1.80;;;22.40;99.90;;;;;;468554;254;28971;-67
2021/06/12 09:48:30;;;;;;;4.60;1.90;;;22.60;99.90;;;;;;468548;254;28951;-66
2021/06/12 09:50:31;;;;;;;1.80;1.70;;;22.60;99.90;;;;;;468559;254;29054;-67
2021/06/12 09:52:32;;;;;;;2.10;1.90;;;22.70;99.90;;;;;;468566;254;28943;-68
2021/06/12 09:54:33;;;;;;;1.80;1.70;;;22.60;99.90;;;;;;468520;254;28966;-66
2021/06/12 09:56:35;;;;;;;1.90;1.80;;;22.50;99.90;;;;;;468539;254;29339;-66
2021/06/12 09:58:36;;;;;;;1.70;1.60;;;22.60;99.90;;;;;;468561;254;29555;-66
2021/06/12 10:00:37;;;;;;;1.60;1.50;;;22.70;99.90;;;;;;468577;254;29375;-65
2021/06/12 10:02:38;;;;;;;1.70;1.60;;;22.50;99.90;;;;;;468567;254;29496;-67
2021/06/12 10:04:40;;;;;;;1.93;1.80;;;22.60;99.90;;;;;;468554;254;28923;-66
2021/06/12 10:06:41;;;;;;;1.70;1.60;;;22.70;99.90;;;;;;468556;254;28879;-67
2021/06/12 10:08:42;;;;;;;4.47;2.07;;;22.80;99.90;;;;;;468559;254;29053;-66
2021/06/12 10:10:43;;;;;;;1.53;1.43;;;22.80;99.90;;;;;;468548;254;28891;-66
2021/06/12 10:12:46;;;;;;;1.53;1.43;;;22.70;99.90;;;;;;468569;254;28969;-68
2021/06/12 10:14:46;;;;;;;1.40;1.20;;;22.70;99.90;;;;;;468467;254;28841;-66
2021/06/12 10:16:47;;;;;;;1.57;1.47;;;22.60;99.90;;;;;;468570;254;28979;-67
2021/06/12 10:18:48;;;;;;;1.90;1.60;;;22.60;99.90;;;;;;468573;254;29010;-66
2021/06/12 10:20:50;;;;;;;1.63;1.53;;;22.70;99.90;;;;;;468578;254;28923;-66
2021/06/12 10:22:52;;;;;;;1.30;1.20;;;22.90;99.90;;;;;;468570;254;29426;-67
2021/06/12 10:24:52;;;;;;;1.50;1.40;;;23.00;99.90;;;;;;468542;254;29388;-66
2021/06/12 10:26:53;;;;;;;2.10;1.20;;;23.20;99.90;;;;;;468548;254;29601;-66
2021/06/12 10:28:55;;;;;;;1.10;1.10;;;23.00;99.90;;;;;;468552;254;28977;-66